sensor_id;sensor_type;location;lat;lon;timestamp;P1;durP1;ratioP1;P2;durP2;ratioP2
30818;SDS011;17546;42.674;23.284;2022-08-25T00:01:23;26.23;;;10.18;;
30818;SDS011;17546;42.674;23.284;2022-08-25T00:03:52;40.67;;;10.27;;
30818;SDS011;17546;42.674;23.284;2022-08-25T00:06:18;39.38;;;9.98;;
30818;SDS011;17546;42.674;23.284;2022-08-25T00:08:44;37.38;;;9.98;;
30818;SDS011;17546;42.674;23.284;2022-08-25T00:11:12;33.80;;;10.32;;
30818;SDS011;17546;42.674;23.284;2022-08-25T00:13:41;45.38;;;10.27;;
30818;SDS011;17546;42.674;23.284;2022-08-25T00:16:11;31.38;;;10.00;;
30818;SDS011;17546;42.674;23.284;2022-08-25T00:18:39;38.78;;;10.23;;
30818;SDS011;17546;42.674;23.284;2022-08-25T00:21:06;31.52;;;9.60;;
30818;SDS011;17546;42.674;23.284;2022-08-25T00:23:33;38.42;;;10.50;;
30818;SDS011;17546;42.674;23.284;2022-08-25T00:25:58;36.65;;;10.43;;
30818;SDS011;17546;42.674;23.284;2022-08-25T00:28:25;29.17;;;10.82;;
30818;SDS011;17546;42.674;23.284;2022-08-25T00:30:51;26.05;;;10.05;;
30818;SDS011;17546;42.674;23.284;2022-08-25T00:33:16;32.83;;;9.90;;
30818;SDS011;17546;42.674;23.284;2022-08-25T00:35:42;30.63;;;10.10;;
30818;SDS011;17546;42.674;23.284;2022-08-25T00:38:09;23.80;;;9.23;;
30818;SDS011;17546;42.674;23.284;2022-08-25T00:40:36;30.67;;;10.25;;
30818;SDS011;17546;42.674;23.284;2022-08-25T00:43:03;29.88;;;10.40;;
30818;SDS011;17546;42.674;23.284;2022-08-25T00:45:30;30.05;;;10.57;;
30818;SDS011;17546;42.674;23.284;2022-08-25T00:47:57;29.98;;;10.30;;
30818;SDS011;17546;42.674;23.284;2022-08-25T00:50:22;30.85;;;9.70;;
30818;SDS011;17546;42.674;23.284;2022-08-25T00:52:50;38.05;;;10.63;;
30818;SDS011;17546;42.674;23.284;2022-08-25T00:55:20;29.70;;;10.18;;
30818;SDS011;17546;42.674;23.284;2022-08-25T00:58:15;31.35;;;10.45;;
30818;SDS011;17546;42.674;23.284;2022-08-25T01:00:46;31.50;;;10.57;;
30818;SDS011;17546;42.674;23.284;2022-08-25T01:03:13;30.35;;;10.02;;
30818;SDS011;17546;42.674;23.284;2022-08-25T01:05:39;26.67;;;10.02;;
30818;SDS011;17546;42.674;23.284;2022-08-25T01:08:07;34.08;;;10.32;;
30818;SDS011;17546;42.674;23.284;2022-08-25T01:10:34;36.10;;;10.00;;
30818;SDS011;17546;42.674;23.284;2022-08-25T01:13:04;26.70;;;9.77;;
30818;SDS011;17546;42.674;23.284;2022-08-25T01:15:34;28.58;;;9.50;;
30818;SDS011;17546;42.674;23.284;2022-08-25T01:18:00;29.13;;;9.50;;
30818;SDS011;17546;42.674;23.284;2022-08-25T01:20:27;28.17;;;10.23;;
30818;SDS011;17546;42.674;23.284;2022-08-25T01:22:54;30.20;;;10.18;;
30818;SDS011;17546;42.674;23.284;2022-08-25T01:28:12;32.90;;;10.82;;
30818;SDS011;17546;42.674;23.284;2022-08-25T01:30:37;35.70;;;10.05;;
30818;SDS011;17546;42.674;23.284;2022-08-25T01:33:04;41.92;;;10.73;;
30818;SDS011;17546;42.674;23.284;2022-08-25T01:35:31;42.00;;;10.30;;
30818;SDS011;17546;42.674;23.284;2022-08-25T01:37:58;37.47;;;11.02;;
30818;SDS011;17546;42.674;23.284;2022-08-25T01:40:24;26.38;;;10.13;;
30818;SDS011;17546;42.674;23.284;2022-08-25T01:43:36;42.20;;;9.43;;
30818;SDS011;17546;42.674;23.284;2022-08-25T01:48:06;37.58;;;9.75;;
30818;SDS011;17546;42.674;23.284;2022-08-25T01:50:33;34.47;;;9.40;;
30818;SDS011;17546;42.674;23.284;2022-08-25T01:55:32;36.30;;;9.35;;
30818;SDS011;17546;42.674;23.284;2022-08-25T01:58:25;56.58;;;10.13;;
30818;SDS011;17546;42.674;23.284;2022-08-25T02:00:56;32.70;;;9.50;;
30818;SDS011;17546;42.674;23.284;2022-08-25T02:03:24;39.78;;;9.20;;
30818;SDS011;17546;42.674;23.284;2022-08-25T02:05:50;37.50;;;9.00;;
30818;SDS011;17546;42.674;23.284;2022-08-25T02:08:17;27.88;;;8.80;;
30818;SDS011;17546;42.674;23.284;2022-08-25T02:10:43;33.40;;;9.18;;
30818;SDS011;17546;42.674;23.284;2022-08-25T02:13:10;54.38;;;9.18;;
30818;SDS011;17546;42.674;23.284;2022-08-25T02:15:52;40.15;;;9.20;;
30818;SDS011;17546;42.674;23.284;2022-08-25T02:18:20;43.28;;;8.65;;
30818;SDS011;17546;42.674;23.284;2022-08-25T02:20:46;39.83;;;8.48;;
30818;SDS011;17546;42.674;23.284;2022-08-25T02:23:13;33.10;;;8.73;;
30818;SDS011;17546;42.674;23.284;2022-08-25T02:25:41;39.47;;;9.32;;
30818;SDS011;17546;42.674;23.284;2022-08-25T02:28:07;35.42;;;9.77;;
30818;SDS011;17546;42.674;23.284;2022-08-25T02:30:34;38.65;;;9.70;;
30818;SDS011;17546;42.674;23.284;2022-08-25T02:33:00;39.63;;;9.15;;
30818;SDS011;17546;42.674;23.284;2022-08-25T02:35:26;26.30;;;9.63;;
30818;SDS011;17546;42.674;23.284;2022-08-25T02:37:53;40.60;;;8.85;;
30818;SDS011;17546;42.674;23.284;2022-08-25T02:40:19;33.92;;;9.43;;
30818;SDS011;17546;42.674;23.284;2022-08-25T02:42:45;37.47;;;8.98;;
30818;SDS011;17546;42.674;23.284;2022-08-25T02:45:12;26.15;;;8.73;;
30818;SDS011;17546;42.674;23.284;2022-08-25T02:47:38;37.00;;;9.27;;
30818;SDS011;17546;42.674;23.284;2022-08-25T02:50:07;37.88;;;8.63;;
30818;SDS011;17546;42.674;23.284;2022-08-25T02:52:33;35.10;;;8.77;;
30818;SDS011;17546;42.674;23.284;2022-08-25T02:54:59;36.13;;;8.73;;
30818;SDS011;17546;42.674;23.284;2022-08-25T02:57:29;31.02;;;8.68;;
30818;SDS011;17546;42.674;23.284;2022-08-25T02:59:55;33.38;;;9.02;;
30818;SDS011;17546;42.674;23.284;2022-08-25T03:02:22;38.22;;;9.00;;
30818;SDS011;17546;42.674;23.284;2022-08-25T03:04:48;36.35;;;8.50;;
30818;SDS011;17546;42.674;23.284;2022-08-25T03:07:16;30.00;;;8.75;;
30818;SDS011;17546;42.674;23.284;2022-08-25T03:09:42;33.85;;;8.35;;
30818;SDS011;17546;42.674;23.284;2022-08-25T03:12:08;46.58;;;9.43;;
30818;SDS011;17546;42.674;23.284;2022-08-25T03:14:34;39.38;;;9.20;;
30818;SDS011;17546;42.674;23.284;2022-08-25T03:17:00;34.20;;;9.05;;
30818;SDS011;17546;42.674;23.284;2022-08-25T03:19:25;39.90;;;8.57;;
30818;SDS011;17546;42.674;23.284;2022-08-25T03:21:51;38.80;;;8.95;;
30818;SDS011;17546;42.674;23.284;2022-08-25T03:24:19;39.97;;;10.07;;
30818;SDS011;17546;42.674;23.284;2022-08-25T03:26:45;42.75;;;8.80;;
30818;SDS011;17546;42.674;23.284;2022-08-25T03:29:24;28.47;;;8.57;;
30818;SDS011;17546;42.674;23.284;2022-08-25T03:31:52;36.67;;;8.32;;
30818;SDS011;17546;42.674;23.284;2022-08-25T03:34:20;36.60;;;8.90;;
30818;SDS011;17546;42.674;23.284;2022-08-25T03:36:49;30.60;;;8.60;;
30818;SDS011;17546;42.674;23.284;2022-08-25T03:39:17;41.83;;;9.15;;
30818;SDS011;17546;42.674;23.284;2022-08-25T03:41:44;43.40;;;8.68;;
30818;SDS011;17546;42.674;23.284;2022-08-25T03:44:11;33.10;;;8.32;;
30818;SDS011;17546;42.674;23.284;2022-08-25T03:46:47;36.78;;;8.55;;
30818;SDS011;17546;42.674;23.284;2022-08-25T03:49:16;27.92;;;9.18;;
30818;SDS011;17546;42.674;23.284;2022-08-25T03:51:44;23.65;;;9.02;;
30818;SDS011;17546;42.674;23.284;2022-08-25T03:54:12;33.00;;;9.18;;
30818;SDS011;17546;42.674;23.284;2022-08-25T03:56:42;34.65;;;9.05;;
30818;SDS011;17546;42.674;23.284;2022-08-25T03:59:08;36.85;;;8.73;;
30818;SDS011;17546;42.674;23.284;2022-08-25T04:01:35;38.63;;;9.10;;
30818;SDS011;17546;42.674;23.284;2022-08-25T04:04:02;32.15;;;8.45;;
30818;SDS011;17546;42.674;23.284;2022-08-25T04:06:28;32.50;;;9.55;;
30818;SDS011;17546;42.674;23.284;2022-08-25T04:08:54;29.85;;;9.07;;
30818;SDS011;17546;42.674;23.284;2022-08-25T04:11:22;33.70;;;9.00;;
30818;SDS011;17546;42.674;23.284;2022-08-25T04:13:54;40.35;;;9.75;;
30818;SDS011;17546;42.674;23.284;2022-08-25T04:16:30;36.45;;;10.07;;
30818;SDS011;17546;42.674;23.284;2022-08-25T04:18:59;35.90;;;9.65;;
30818;SDS011;17546;42.674;23.284;2022-08-25T04:21:26;41.28;;;9.85;;
30818;SDS011;17546;42.674;23.284;2022-08-25T04:23:53;41.08;;;9.68;;
30818;SDS011;17546;42.674;23.284;2022-08-25T04:26:34;28.38;;;9.52;;
30818;SDS011;17546;42.674;23.284;2022-08-25T04:29:16;32.75;;;9.43;;
30818;SDS011;17546;42.674;23.284;2022-08-25T04:31:44;34.97;;;10.30;;
30818;SDS011;17546;42.674;23.284;2022-08-25T04:34:11;35.03;;;10.20;;
30818;SDS011;17546;42.674;23.284;2022-08-25T04:36:37;30.40;;;9.77;;
30818;SDS011;17546;42.674;23.284;2022-08-25T04:39:03;36.40;;;9.75;;
30818;SDS011;17546;42.674;23.284;2022-08-25T04:41:28;26.50;;;10.02;;
30818;SDS011;17546;42.674;23.284;2022-08-25T04:43:55;57.63;;;10.95;;
30818;SDS011;17546;42.674;23.284;2022-08-25T04:46:25;31.98;;;10.68;;
30818;SDS011;17546;42.674;23.284;2022-08-25T04:48:53;30.52;;;10.35;;
30818;SDS011;17546;42.674;23.284;2022-08-25T04:51:21;34.03;;;10.80;;
30818;SDS011;17546;42.674;23.284;2022-08-25T04:53:49;48.50;;;11.13;;
30818;SDS011;17546;42.674;23.284;2022-08-25T04:56:17;34.92;;;10.43;;
30818;SDS011;17546;42.674;23.284;2022-08-25T04:58:45;27.42;;;10.68;;
30818;SDS011;17546;42.674;23.284;2022-08-25T05:01:14;35.85;;;11.15;;
30818;SDS011;17546;42.674;23.284;2022-08-25T05:03:44;35.08;;;10.43;;
30818;SDS011;17546;42.674;23.284;2022-08-25T05:06:11;38.15;;;10.48;;
30818;SDS011;17546;42.674;23.284;2022-08-25T05:08:38;31.17;;;9.55;;
30818;SDS011;17546;42.674;23.284;2022-08-25T05:11:08;33.58;;;9.70;;
30818;SDS011;17546;42.674;23.284;2022-08-25T05:13:37;33.55;;;9.60;;
30818;SDS011;17546;42.674;23.284;2022-08-25T05:16:03;37.25;;;10.30;;
30818;SDS011;17546;42.674;23.284;2022-08-25T05:18:30;40.47;;;10.10;;
30818;SDS011;17546;42.674;23.284;2022-08-25T05:21:00;43.60;;;10.50;;
30818;SDS011;17546;42.674;23.284;2022-08-25T05:23:31;44.92;;;9.93;;
30818;SDS011;17546;42.674;23.284;2022-08-25T05:26:00;33.83;;;10.25;;
30818;SDS011;17546;42.674;23.284;2022-08-25T05:28:28;36.72;;;10.38;;
30818;SDS011;17546;42.674;23.284;2022-08-25T05:30:56;37.63;;;10.15;;
30818;SDS011;17546;42.674;23.284;2022-08-25T05:33:23;35.45;;;9.90;;
30818;SDS011;17546;42.674;23.284;2022-08-25T05:35:49;54.53;;;10.32;;
30818;SDS011;17546;42.674;23.284;2022-08-25T05:38:15;43.80;;;10.30;;
30818;SDS011;17546;42.674;23.284;2022-08-25T05:40:41;29.67;;;10.25;;
30818;SDS011;17546;42.674;23.284;2022-08-25T05:43:06;30.15;;;10.90;;
30818;SDS011;17546;42.674;23.284;2022-08-25T05:45:32;34.42;;;10.02;;
30818;SDS011;17546;42.674;23.284;2022-08-25T05:47:57;41.35;;;10.48;;
30818;SDS011;17546;42.674;23.284;2022-08-25T05:50:22;30.95;;;9.50;;
30818;SDS011;17546;42.674;23.284;2022-08-25T05:52:48;36.97;;;9.60;;
30818;SDS011;17546;42.674;23.284;2022-08-25T05:55:13;29.73;;;9.85;;
30818;SDS011;17546;42.674;23.284;2022-08-25T05:57:39;42.53;;;9.35;;
30818;SDS011;17546;42.674;23.284;2022-08-25T06:00:05;29.25;;;9.30;;
30818;SDS011;17546;42.674;23.284;2022-08-25T06:02:32;33.05;;;9.27;;
30818;SDS011;17546;42.674;23.284;2022-08-25T06:05:11;25.15;;;8.30;;
30818;SDS011;17546;42.674;23.284;2022-08-25T06:07:46;29.20;;;9.05;;
30818;SDS011;17546;42.674;23.284;2022-08-25T06:10:14;26.23;;;8.70;;
30818;SDS011;17546;42.674;23.284;2022-08-25T06:12:41;24.90;;;9.48;;
30818;SDS011;17546;42.674;23.284;2022-08-25T06:15:12;42.40;;;9.63;;
30818;SDS011;17546;42.674;23.284;2022-08-25T06:17:40;33.35;;;9.40;;
30818;SDS011;17546;42.674;23.284;2022-08-25T06:20:11;40.88;;;9.90;;
30818;SDS011;17546;42.674;23.284;2022-08-25T06:22:38;25.83;;;9.02;;
30818;SDS011;17546;42.674;23.284;2022-08-25T06:25:05;25.88;;;9.75;;
30818;SDS011;17546;42.674;23.284;2022-08-25T06:27:32;35.65;;;9.80;;
30818;SDS011;17546;42.674;23.284;2022-08-25T06:29:58;42.05;;;9.68;;
30818;SDS011;17546;42.674;23.284;2022-08-25T06:32:29;35.47;;;10.43;;
30818;SDS011;17546;42.674;23.284;2022-08-25T06:34:56;36.05;;;9.32;;
30818;SDS011;17546;42.674;23.284;2022-08-25T06:37:22;28.73;;;9.25;;
30818;SDS011;17546;42.674;23.284;2022-08-25T06:39:48;21.83;;;8.73;;
30818;SDS011;17546;42.674;23.284;2022-08-25T06:42:13;33.38;;;9.60;;
30818;SDS011;17546;42.674;23.284;2022-08-25T06:44:38;37.70;;;9.07;;
30818;SDS011;17546;42.674;23.284;2022-08-25T06:47:05;32.08;;;9.82;;
30818;SDS011;17546;42.674;23.284;2022-08-25T06:49:30;33.80;;;10.02;;
30818;SDS011;17546;42.674;23.284;2022-08-25T06:51:55;28.60;;;9.32;;
30818;SDS011;17546;42.674;23.284;2022-08-25T06:54:21;41.03;;;10.18;;
30818;SDS011;17546;42.674;23.284;2022-08-25T06:56:46;29.95;;;9.98;;
30818;SDS011;17546;42.674;23.284;2022-08-25T06:59:12;32.85;;;10.13;;
30818;SDS011;17546;42.674;23.284;2022-08-25T07:01:37;30.70;;;9.52;;
30818;SDS011;17546;42.674;23.284;2022-08-25T07:04:03;39.60;;;9.65;;
30818;SDS011;17546;42.674;23.284;2022-08-25T07:06:31;29.42;;;9.40;;
30818;SDS011;17546;42.674;23.284;2022-08-25T07:08:59;35.63;;;10.07;;
30818;SDS011;17546;42.674;23.284;2022-08-25T07:11:25;39.35;;;9.73;;
30818;SDS011;17546;42.674;23.284;2022-08-25T07:13:51;34.55;;;9.75;;
30818;SDS011;17546;42.674;23.284;2022-08-25T07:16:17;29.65;;;9.43;;
30818;SDS011;17546;42.674;23.284;2022-08-25T07:18:45;30.38;;;8.88;;
30818;SDS011;17546;42.674;23.284;2022-08-25T07:21:12;30.85;;;9.18;;
30818;SDS011;17546;42.674;23.284;2022-08-25T07:23:39;33.03;;;8.98;;
30818;SDS011;17546;42.674;23.284;2022-08-25T07:26:06;42.20;;;9.57;;
30818;SDS011;17546;42.674;23.284;2022-08-25T07:28:38;34.60;;;9.35;;
30818;SDS011;17546;42.674;23.284;2022-08-25T07:31:04;33.67;;;8.27;;
30818;SDS011;17546;42.674;23.284;2022-08-25T07:33:30;40.42;;;8.85;;
30818;SDS011;17546;42.674;23.284;2022-08-25T07:35:56;49.30;;;8.20;;
30818;SDS011;17546;42.674;23.284;2022-08-25T07:38:22;37.45;;;7.85;;
30818;SDS011;17546;42.674;23.284;2022-08-25T07:40:48;36.28;;;8.75;;
30818;SDS011;17546;42.674;23.284;2022-08-25T07:43:33;42.78;;;7.70;;
30818;SDS011;17546;42.674;23.284;2022-08-25T07:45:59;38.42;;;7.57;;
30818;SDS011;17546;42.674;23.284;2022-08-25T07:48:24;39.47;;;8.48;;
30818;SDS011;17546;42.674;23.284;2022-08-25T07:50:50;33.08;;;8.13;;
30818;SDS011;17546;42.674;23.284;2022-08-25T07:53:16;35.53;;;7.63;;
30818;SDS011;17546;42.674;23.284;2022-08-25T07:55:46;41.70;;;8.25;;
30818;SDS011;17546;42.674;23.284;2022-08-25T07:58:11;41.35;;;7.93;;
30818;SDS011;17546;42.674;23.284;2022-08-25T08:00:37;35.28;;;8.13;;
30818;SDS011;17546;42.674;23.284;2022-08-25T08:03:04;30.83;;;8.15;;
30818;SDS011;17546;42.674;23.284;2022-08-25T08:05:31;29.40;;;7.93;;
30818;SDS011;17546;42.674;23.284;2022-08-25T08:07:57;34.83;;;8.02;;
30818;SDS011;17546;42.674;23.284;2022-08-25T08:10:23;53.78;;;11.05;;
30818;SDS011;17546;42.674;23.284;2022-08-25T08:12:50;33.53;;;9.07;;
30818;SDS011;17546;42.674;23.284;2022-08-25T08:15:16;33.28;;;8.07;;
30818;SDS011;17546;42.674;23.284;2022-08-25T08:17:41;40.80;;;8.93;;
30818;SDS011;17546;42.674;23.284;2022-08-25T08:20:07;45.60;;;8.40;;
30818;SDS011;17546;42.674;23.284;2022-08-25T08:22:38;31.30;;;8.40;;
30818;SDS011;17546;42.674;23.284;2022-08-25T08:25:06;38.00;;;7.85;;
30818;SDS011;17546;42.674;23.284;2022-08-25T08:27:33;31.33;;;8.43;;
30818;SDS011;17546;42.674;23.284;2022-08-25T08:29:59;38.80;;;8.15;;
30818;SDS011;17546;42.674;23.284;2022-08-25T08:32:25;53.28;;;9.65;;
30818;SDS011;17546;42.674;23.284;2022-08-25T08:34:51;47.45;;;7.63;;
30818;SDS011;17546;42.674;23.284;2022-08-25T08:37:17;37.65;;;8.70;;
30818;SDS011;17546;42.674;23.284;2022-08-25T08:39:43;43.00;;;9.00;;
30818;SDS011;17546;42.674;23.284;2022-08-25T08:42:21;44.40;;;9.02;;
30818;SDS011;17546;42.674;23.284;2022-08-25T08:45:14;40.85;;;7.47;;
30818;SDS011;17546;42.674;23.284;2022-08-25T08:56:37;48.50;;;8.02;;
30818;SDS011;17546;42.674;23.284;2022-08-25T08:59:19;60.33;;;9.10;;
30818;SDS011;17546;42.674;23.284;2022-08-25T09:01:54;58.42;;;8.55;;
30818;SDS011;17546;42.674;23.284;2022-08-25T09:07:12;53.47;;;7.85;;
30818;SDS011;17546;42.674;23.284;2022-08-25T09:12:10;46.25;;;7.22;;
30818;SDS011;17546;42.674;23.284;2022-08-25T09:28:47;57.50;;;8.38;;
30818;SDS011;17546;42.674;23.284;2022-08-25T09:31:04;70.20;;;8.45;;
30818;SDS011;17546;42.674;23.284;2022-08-25T09:33:51;54.08;;;7.53;;
30818;SDS011;17546;42.674;23.284;2022-08-25T09:36:19;54.67;;;7.40;;
30818;SDS011;17546;42.674;23.284;2022-08-25T09:38:44;47.65;;;7.30;;
30818;SDS011;17546;42.674;23.284;2022-08-25T09:41:10;131.25;;;13.32;;
30818;SDS011;17546;42.674;23.284;2022-08-25T09:43:41;105.65;;;12.68;;
30818;SDS011;17546;42.674;23.284;2022-08-25T09:46:13;58.05;;;8.85;;
30818;SDS011;17546;42.674;23.284;2022-08-25T09:48:44;54.63;;;7.90;;
30818;SDS011;17546;42.674;23.284;2022-08-25T09:53:54;51.33;;;8.55;;
30818;SDS011;17546;42.674;23.284;2022-08-25T09:56:20;57.33;;;6.47;;
30818;SDS011;17546;42.674;23.284;2022-08-25T09:58:48;53.25;;;6.60;;
30818;SDS011;17546;42.674;23.284;2022-08-25T10:01:17;61.55;;;7.30;;
30818;SDS011;17546;42.674;23.284;2022-08-25T10:03:55;69.80;;;6.78;;
30818;SDS011;17546;42.674;23.284;2022-08-25T10:06:25;49.45;;;6.68;;
30818;SDS011;17546;42.674;23.284;2022-08-25T10:08:55;51.53;;;6.50;;
30818;SDS011;17546;42.674;23.284;2022-08-25T10:11:31;57.28;;;6.43;;
30818;SDS011;17546;42.674;23.284;2022-08-25T10:14:04;58.22;;;5.97;;
30818;SDS011;17546;42.674;23.284;2022-08-25T10:16:39;59.08;;;8.00;;
30818;SDS011;17546;42.674;23.284;2022-08-25T10:19:22;58.08;;;6.38;;
30818;SDS011;17546;42.674;23.284;2022-08-25T10:24:34;49.45;;;5.10;;
30818;SDS011;17546;42.674;23.284;2022-08-25T10:27:20;43.08;;;4.72;;
30818;SDS011;17546;42.674;23.284;2022-08-25T10:29:56;44.25;;;5.05;;
30818;SDS011;17546;42.674;23.284;2022-08-25T10:35:22;48.42;;;4.72;;
30818;SDS011;17546;42.674;23.284;2022-08-25T10:40:29;34.78;;;5.05;;
30818;SDS011;17546;42.674;23.284;2022-08-25T10:45:47;47.38;;;5.68;;
30818;SDS011;17546;42.674;23.284;2022-08-25T10:53:39;49.45;;;5.13;;
30818;SDS011;17546;42.674;23.284;2022-08-25T11:07:02;44.38;;;4.80;;
30818;SDS011;17546;42.674;23.284;2022-08-25T11:09:42;56.28;;;4.93;;
30818;SDS011;17546;42.674;23.284;2022-08-25T11:12:14;50.75;;;4.85;;
30818;SDS011;17546;42.674;23.284;2022-08-25T11:14:48;45.08;;;5.53;;
30818;SDS011;17546;42.674;23.284;2022-08-25T11:19:55;38.97;;;4.47;;
30818;SDS011;17546;42.674;23.284;2022-08-25T11:22:46;43.17;;;4.72;;
30818;SDS011;17546;42.674;23.284;2022-08-25T11:25:45;33.72;;;4.68;;
30818;SDS011;17546;42.674;23.284;2022-08-25T11:28:46;48.83;;;4.78;;
30818;SDS011;17546;42.674;23.284;2022-08-25T11:31:21;33.13;;;4.75;;
30818;SDS011;17546;42.674;23.284;2022-08-25T11:33:49;47.08;;;4.97;;
30818;SDS011;17546;42.674;23.284;2022-08-25T11:36:36;39.42;;;4.55;;
30818;SDS011;17546;42.674;23.284;2022-08-25T11:45:11;47.30;;;5.10;;
30818;SDS011;17546;42.674;23.284;2022-08-25T11:55:46;37.65;;;3.85;;
30818;SDS011;17546;42.674;23.284;2022-08-25T11:58:13;37.13;;;4.50;;
30818;SDS011;17546;42.674;23.284;2022-08-25T12:00:42;29.10;;;4.53;;
30818;SDS011;17546;42.674;23.284;2022-08-25T12:30:17;34.28;;;4.40;;
30818;SDS011;17546;42.674;23.284;2022-08-25T12:43:21;36.08;;;4.50;;
30818;SDS011;17546;42.674;23.284;2022-08-25T12:51:26;38.15;;;4.82;;
30818;SDS011;17546;42.674;23.284;2022-08-25T12:57:14;30.73;;;4.07;;
30818;SDS011;17546;42.674;23.284;2022-08-25T12:59:53;39.00;;;4.30;;
30818;SDS011;17546;42.674;23.284;2022-08-25T13:15:42;40.65;;;3.83;;
30818;SDS011;17546;42.674;23.284;2022-08-25T13:20:47;49.67;;;4.68;;
30818;SDS011;17546;42.674;23.284;2022-08-25T13:23:19;30.67;;;4.55;;
30818;SDS011;17546;42.674;23.284;2022-08-25T13:25:50;40.72;;;4.75;;
30818;SDS011;17546;42.674;23.284;2022-08-25T13:28:23;35.90;;;4.15;;
30818;SDS011;17546;42.674;23.284;2022-08-25T13:31:04;43.08;;;4.65;;
30818;SDS011;17546;42.674;23.284;2022-08-25T13:33:45;41.03;;;4.57;;
30818;SDS011;17546;42.674;23.284;2022-08-25T13:39:09;40.10;;;4.30;;
30818;SDS011;17546;42.674;23.284;2022-08-25T13:41:36;37.10;;;4.45;;
30818;SDS011;17546;42.674;23.284;2022-08-25T13:44:07;38.20;;;5.18;;
30818;SDS011;17546;42.674;23.284;2022-08-25T13:46:33;30.80;;;3.95;;
30818;SDS011;17546;42.674;23.284;2022-08-25T13:49:05;33.83;;;4.45;;
30818;SDS011;17546;42.674;23.284;2022-08-25T13:51:32;29.38;;;3.92;;
30818;SDS011;17546;42.674;23.284;2022-08-25T13:54:03;37.33;;;4.43;;
30818;SDS011;17546;42.674;23.284;2022-08-25T13:56:31;46.15;;;4.45;;
30818;SDS011;17546;42.674;23.284;2022-08-25T13:59:05;34.88;;;5.20;;
30818;SDS011;17546;42.674;23.284;2022-08-25T14:01:45;43.55;;;4.75;;
30818;SDS011;17546;42.674;23.284;2022-08-25T14:07:12;43.20;;;5.60;;
30818;SDS011;17546;42.674;23.284;2022-08-25T14:09:54;34.60;;;4.38;;
30818;SDS011;17546;42.674;23.284;2022-08-25T14:12:44;35.25;;;4.43;;
30818;SDS011;17546;42.674;23.284;2022-08-25T14:17:47;43.13;;;4.75;;
30818;SDS011;17546;42.674;23.284;2022-08-25T14:20:26;30.05;;;4.60;;
30818;SDS011;17546;42.674;23.284;2022-08-25T14:22:58;45.45;;;4.30;;
30818;SDS011;17546;42.674;23.284;2022-08-25T14:25:28;33.97;;;4.05;;
30818;SDS011;17546;42.674;23.284;2022-08-25T14:27:59;46.63;;;4.68;;
30818;SDS011;17546;42.674;23.284;2022-08-25T14:30:30;32.45;;;3.80;;
30818;SDS011;17546;42.674;23.284;2022-08-25T14:32:58;39.28;;;4.30;;
30818;SDS011;17546;42.674;23.284;2022-08-25T14:35:26;42.88;;;4.22;;
30818;SDS011;17546;42.674;23.284;2022-08-25T14:37:53;35.05;;;4.60;;
30818;SDS011;17546;42.674;23.284;2022-08-25T14:40:19;44.90;;;4.50;;
30818;SDS011;17546;42.674;23.284;2022-08-25T14:42:46;43.47;;;5.80;;
30818;SDS011;17546;42.674;23.284;2022-08-25T14:45:16;30.05;;;4.50;;
30818;SDS011;17546;42.674;23.284;2022-08-25T14:47:43;34.33;;;4.53;;
30818;SDS011;17546;42.674;23.284;2022-08-25T14:50:13;25.98;;;4.28;;
30818;SDS011;17546;42.674;23.284;2022-08-25T14:52:39;37.67;;;4.35;;
30818;SDS011;17546;42.674;23.284;2022-08-25T14:55:06;45.97;;;4.72;;
30818;SDS011;17546;42.674;23.284;2022-08-25T14:57:33;51.75;;;6.03;;
30818;SDS011;17546;42.674;23.284;2022-08-25T15:00:00;50.13;;;5.78;;
30818;SDS011;17546;42.674;23.284;2022-08-25T15:02:27;30.40;;;4.70;;
30818;SDS011;17546;42.674;23.284;2022-08-25T15:05:00;34.88;;;4.47;;
30818;SDS011;17546;42.674;23.284;2022-08-25T15:07:30;39.88;;;4.68;;
30818;SDS011;17546;42.674;23.284;2022-08-25T15:10:15;37.58;;;4.82;;
30818;SDS011;17546;42.674;23.284;2022-08-25T15:12:41;39.17;;;5.03;;
30818;SDS011;17546;42.674;23.284;2022-08-25T15:15:06;48.08;;;5.25;;
30818;SDS011;17546;42.674;23.284;2022-08-25T15:17:33;43.65;;;4.72;;
30818;SDS011;17546;42.674;23.284;2022-08-25T15:19:59;54.75;;;4.88;;
30818;SDS011;17546;42.674;23.284;2022-08-25T15:22:25;34.80;;;4.75;;
30818;SDS011;17546;42.674;23.284;2022-08-25T15:24:51;43.75;;;4.28;;
30818;SDS011;17546;42.674;23.284;2022-08-25T15:27:17;38.83;;;4.93;;
30818;SDS011;17546;42.674;23.284;2022-08-25T15:29:44;56.67;;;5.72;;
30818;SDS011;17546;42.674;23.284;2022-08-25T15:32:09;41.28;;;4.88;;
30818;SDS011;17546;42.674;23.284;2022-08-25T15:34:36;36.08;;;5.00;;
30818;SDS011;17546;42.674;23.284;2022-08-25T15:37:07;37.13;;;4.95;;
30818;SDS011;17546;42.674;23.284;2022-08-25T15:39:36;40.60;;;4.80;;
30818;SDS011;17546;42.674;23.284;2022-08-25T15:42:02;36.53;;;4.95;;
30818;SDS011;17546;42.674;23.284;2022-08-25T15:44:29;37.97;;;5.22;;
30818;SDS011;17546;42.674;23.284;2022-08-25T15:46:55;47.65;;;5.13;;
30818;SDS011;17546;42.674;23.284;2022-08-25T15:49:22;47.00;;;4.90;;
30818;SDS011;17546;42.674;23.284;2022-08-25T15:51:48;33.92;;;4.80;;
30818;SDS011;17546;42.674;23.284;2022-08-25T15:54:18;39.95;;;4.72;;
30818;SDS011;17546;42.674;23.284;2022-08-25T15:56:44;46.83;;;5.65;;
30818;SDS011;17546;42.674;23.284;2022-08-25T15:59:11;44.70;;;5.00;;
30818;SDS011;17546;42.674;23.284;2022-08-25T16:01:38;50.05;;;8.80;;
30818;SDS011;17546;42.674;23.284;2022-08-25T16:04:04;53.50;;;6.03;;
30818;SDS011;17546;42.674;23.284;2022-08-25T16:06:30;36.72;;;5.30;;
30818;SDS011;17546;42.674;23.284;2022-08-25T16:08:56;47.33;;;7.90;;
30818;SDS011;17546;42.674;23.284;2022-08-25T16:11:23;42.70;;;5.72;;
30818;SDS011;17546;42.674;23.284;2022-08-25T16:13:52;52.90;;;5.95;;
30818;SDS011;17546;42.674;23.284;2022-08-25T16:16:19;32.20;;;6.30;;
30818;SDS011;17546;42.674;23.284;2022-08-25T16:18:46;35.28;;;5.43;;
30818;SDS011;17546;42.674;23.284;2022-08-25T16:21:14;35.95;;;5.95;;
30818;SDS011;17546;42.674;23.284;2022-08-25T16:23:40;37.88;;;5.70;;
30818;SDS011;17546;42.674;23.284;2022-08-25T16:26:07;41.45;;;6.50;;
30818;SDS011;17546;42.674;23.284;2022-08-25T16:28:37;56.50;;;6.90;;
30818;SDS011;17546;42.674;23.284;2022-08-25T16:31:11;37.85;;;6.47;;
30818;SDS011;17546;42.674;23.284;2022-08-25T16:33:38;36.15;;;5.90;;
30818;SDS011;17546;42.674;23.284;2022-08-25T16:36:08;41.33;;;6.30;;
30818;SDS011;17546;42.674;23.284;2022-08-25T16:38:35;29.02;;;6.07;;
30818;SDS011;17546;42.674;23.284;2022-08-25T16:41:06;37.15;;;6.68;;
30818;SDS011;17546;42.674;23.284;2022-08-25T16:43:40;43.55;;;6.25;;
30818;SDS011;17546;42.674;23.284;2022-08-25T16:46:08;59.78;;;5.97;;
30818;SDS011;17546;42.674;23.284;2022-08-25T16:48:35;44.30;;;5.82;;
30818;SDS011;17546;42.674;23.284;2022-08-25T16:51:08;50.10;;;5.93;;
30818;SDS011;17546;42.674;23.284;2022-08-25T16:53:35;50.42;;;5.95;;
30818;SDS011;17546;42.674;23.284;2022-08-25T16:56:20;34.13;;;5.93;;
30818;SDS011;17546;42.674;23.284;2022-08-25T16:58:52;44.08;;;5.63;;
30818;SDS011;17546;42.674;23.284;2022-08-25T17:01:20;39.65;;;5.80;;
30818;SDS011;17546;42.674;23.284;2022-08-25T17:03:46;27.35;;;5.55;;